Time;durP1;ratioP1;P1;durP2;ratioP2;P2;SDS_P1;SDS_P2;PMS_P1;PMS_P2;Temp;Humidity;BMP_temperature;BMP_pressure;BME280_temperature;BME280_humidity;BME280_pressure;Samples;Min_cycle;Max_cycle;Signal;HPM_P1;HPM_P2
2022/10/08 00:02:31;;;;;;;0.00;0.00;;;;;;;15.76;68.55;98176.44;8413843;28;20241;-80
2022/10/08 00:06:34;;;;;;;0.00;0.00;;;;;;;15.69;68.75;98169.88;8413780;28;20239;-81
2022/10/08 00:10:37;;;;;;;0.00;0.00;;;;;;;15.63;69.00;98164.13;8413520;28;20242;-80
2022/10/08 00:14:41;;;;;;;0.00;0.00;;;;;;;15.61;69.19;98170.38;8413600;28;20235;-80
2022/10/08 00:18:45;;;;;;;0.00;0.00;;;;;;;15.69;68.64;98169.88;8413548;28;20230;-80
2022/10/08 00:22:48;;;;;;;0.00;0.00;;;;;;;15.74;68.34;98158.25;8413818;28;20226;-80
2022/10/08 00:26:52;;;;;;;0.00;0.00;;;;;;;15.66;69.13;98157.03;8413528;28;20235;-80
2022/10/08 00:30:56;;;;;;;0.00;0.00;;;;;;;15.58;69.30;98162.75;8413633;28;20238;-80
2022/10/08 00:34:58;;;;;;;0.00;0.00;;;;;;;15.39;70.28;98163.84;8413664;28;20226;-80
2022/10/08 00:39:03;;;;;;;0.00;0.00;;;;;;;15.47;70.02;98150.34;8413550;28;20230;-78
2022/10/08 00:43:06;;;;;;;0.00;0.00;;;;;;;15.60;69.39;98143.44;8413479;28;20230;-79
2022/10/08 00:47:15;;;;;;;0.00;0.00;;;;;;;15.53;69.29;98130.84;8412993;28;20410;-80
2022/10/08 00:51:18;;;;;;;0.00;0.00;;;;;;;15.42;70.02;98140.19;8413165;28;20246;-79
2022/10/08 00:55:23;;;;;;;0.00;0.00;;;;;;;15.41;70.06;98135.06;8413691;28;20231;-79
2022/10/08 00:59:27;;;;;;;0.00;0.00;;;;;;;15.17;71.55;98130.41;8419319;28;20223;-77
2022/10/08 01:03:31;;;;;;;0.00;0.00;;;;;;;15.51;69.86;98137.94;8419579;28;20238;-78
2022/10/08 01:07:39;;;;;;;0.03;0.03;;;;;;;15.47;69.94;98129.47;8419130;28;20246;-79
2022/10/08 01:11:46;;;;;;;0.00;0.00;;;;;;;15.57;69.50;98134.94;8419239;28;20342;-79
2022/10/08 01:15:55;;;;;;;0.00;0.00;;;;;;;15.33;70.68;98130.31;8419198;28;20530;-80
2022/10/08 01:20:13;;;;;;;0.00;0.00;;;;;;;15.24;71.05;98120.44;8419011;28;20234;-79
2022/10/08 01:25:31;;;;;;;0.00;0.00;;;;;;;15.39;70.32;98118.66;8419293;28;20234;-80
2022/10/08 01:28:52;;;;;;;0.00;0.00;;;;;;;15.40;70.39;98121.19;8418328;28;20262;-80
2022/10/08 01:33:09;;;;;;;0.00;0.00;;;;;;;15.47;70.21;98112.97;8418266;28;20234;-80
2022/10/08 01:37:17;;;;;;;0.00;0.00;;;;;;;15.52;70.06;98116.97;8418614;28;20245;-79
2022/10/08 01:41:20;;;;;;;0.00;0.00;;;;;;;15.45;70.54;98126.09;8418394;28;20290;-79
2022/10/08 01:45:31;;;;;;;0.00;0.00;;;;;;;15.38;70.13;98114.38;8418463;28;20230;-79
2022/10/08 01:49:49;;;;;;;0.00;0.00;;;;;;;15.43;70.45;98122.75;8417519;28;20242;-79
2022/10/08 01:53:52;;;;;;;0.00;0.00;;;;;;;15.27;71.48;98122.88;8418236;28;20226;-79
2022/10/08 01:57:56;;;;;;;0.00;0.00;;;;;;;15.43;70.52;98120.16;8418020;28;20517;-79
2022/10/08 02:02:05;;;;;;;0.00;0.00;;;;;;;15.49;69.91;98119.75;8417683;28;20233;-80
2022/10/08 02:06:09;;;;;;;0.07;0.07;;;;;;;15.57;69.42;98117.53;8417680;28;20298;-79
2022/10/08 02:10:14;;;;;;;0.00;0.00;;;;;;;15.57;69.46;98117.53;8416573;28;20238;-80
2022/10/08 02:14:17;;;;;;;0.00;0.00;;;;;;;15.44;69.39;98111.41;8417460;28;20231;-79
2022/10/08 02:18:30;;;;;;;0.00;0.00;;;;;;;15.55;69.21;98113.31;8417350;28;20468;-79
2022/10/08 02:22:37;;;;;;;0.00;0.00;;;;;;;15.37;69.72;98110.94;8416830;28;20276;-78
2022/10/08 02:26:44;;;;;;;0.00;0.00;;;;;;;15.44;69.70;98114.00;8417003;28;20356;-79
2022/10/08 02:30:50;;;;;;;0.10;0.10;;;;;;;15.51;69.40;98117.06;8416896;28;20230;-79
2022/10/08 02:34:56;;;;;;;0.00;0.00;;;;;;;15.36;69.65;98111.84;8416769;28;20243;-80
2022/10/08 02:39:02;;;;;;;0.00;0.00;;;;;;;15.36;69.60;98108.41;8416747;28;20229;-80
2022/10/08 02:43:08;;;;;;;0.00;0.00;;;;;;;15.42;69.31;98095.84;8416370;28;20227;-79
2022/10/08 02:47:14;;;;;;;0.00;0.00;;;;;;;15.41;68.92;98101.13;8416274;28;20227;-79
2022/10/08 02:51:20;;;;;;;0.00;0.00;;;;;;;15.35;69.12;98111.97;8416287;28;20227;-79
2022/10/08 02:55:28;;;;;;;0.00;0.00;;;;;;;15.29;69.32;98121.00;8416214;28;20231;-80
2022/10/08 02:59:32;;;;;;;0.10;0.10;;;;;;;15.36;69.01;98119.66;8415554;28;20250;-79
2022/10/08 03:03:38;;;;;;;0.00;0.00;;;;;;;15.31;69.70;98118.31;8415983;28;20237;-79
2022/10/08 03:07:42;;;;;;;0.00;0.00;;;;;;;15.35;68.92;98114.56;8415523;28;20419;-79
2022/10/08 03:11:45;;;;;;;0.00;0.00;;;;;;;15.30;69.02;98109.63;8415309;28;20242;-79
2022/10/08 03:15:50;;;;;;;0.03;0.03;;;;;;;15.33;68.97;98112.06;8415358;28;20230;-80
2022/10/08 03:19:54;;;;;;;0.00;0.00;;;;;;;15.29;68.87;98109.72;8415299;28;20533;-80
2022/10/08 03:23:58;;;;;;;0.00;0.00;;;;;;;15.30;68.82;98108.78;8414921;28;20230;-80
2022/10/08 03:28:01;;;;;;;0.00;0.00;;;;;;;15.32;69.23;98106.91;8414957;28;20251;-81
2022/10/08 03:32:05;;;;;;;0.10;0.10;;;;;;;15.29;68.83;98118.41;8414451;28;20247;-80
2022/10/08 03:36:08;;;;;;;0.00;0.00;;;;;;;15.33;68.85;98108.63;8413827;28;20227;-81
2022/10/08 03:40:12;;;;;;;0.00;0.00;;;;;;;15.30;68.88;98112.22;8413814;28;20280;-81
2022/10/08 03:44:15;;;;;;;0.00;0.00;;;;;;;15.29;69.11;98110.56;8413901;28;20400;-80
2022/10/08 03:48:18;;;;;;;0.00;0.00;;;;;;;15.32;69.09;98112.97;8413623;28;20258;-80
2022/10/08 03:52:21;;;;;;;0.00;0.00;;;;;;;15.35;69.08;98119.78;8413374;28;20595;-80
2022/10/08 03:56:25;;;;;;;0.00;0.00;;;;;;;15.23;69.10;98122.22;8413380;28;20541;-80
2022/10/08 04:00:28;;;;;;;0.00;0.00;;;;;;;15.20;69.63;98122.38;8413055;28;20285;-79
2022/10/08 04:04:31;;;;;;;0.00;0.00;;;;;;;15.07;69.94;98124.06;8413232;28;20260;-80
2022/10/08 04:08:34;;;;;;;0.00;0.00;;;;;;;15.22;69.59;98130.97;8412956;28;20243;-79
2022/10/08 04:12:38;;;;;;;0.00;0.00;;;;;;;15.11;70.08;98122.13;8413141;28;20234;-79
2022/10/08 04:16:41;;;;;;;0.00;0.00;;;;;;;15.25;69.45;98122.97;8413045;28;20246;-79
2022/10/08 04:20:44;;;;;;;0.00;0.00;;;;;;;15.30;69.04;98130.50;8413104;28;20230;-79
2022/10/08 04:24:47;;;;;;;0.00;0.00;;;;;;;15.34;68.91;98126.75;8412855;28;20257;-80
2022/10/08 04:28:52;;;;;;;0.00;0.00;;;;;;;15.40;68.77;98128.16;8412805;28;20234;-80
2022/10/08 04:32:55;;;;;;;0.00;0.00;;;;;;;15.30;68.73;98121.84;8412473;28;20226;-78
2022/10/08 04:36:57;;;;;;;0.00;0.00;;;;;;;15.41;69.00;98133.28;8412458;28;20231;-78
2022/10/08 04:41:04;;;;;;;0.00;0.00;;;;;;;15.51;68.30;98137.94;8412651;28;20229;-78
2022/10/08 04:45:10;;;;;;;0.03;0.03;;;;;;;15.48;68.59;98138.97;8412560;28;20243;-77
2022/10/08 04:49:13;;;;;;;0.00;0.00;;;;;;;15.49;68.63;98139.81;8412544;28;20237;-77
2022/10/08 04:53:15;;;;;;;0.00;0.00;;;;;;;15.48;68.68;98143.34;8412338;28;20272;-78
2022/10/08 04:57:18;;;;;;;0.00;0.00;;;;;;;15.54;68.49;98148.19;8412470;28;20231;-78
2022/10/08 05:01:23;;;;;;;0.10;0.10;;;;;;;15.52;68.58;98150.91;8412274;28;20276;-78
2022/10/08 05:05:27;;;;;;;0.00;0.00;;;;;;;15.53;68.41;98152.56;8411915;28;20229;-77
2022/10/08 05:09:30;;;;;;;0.00;0.00;;;;;;;15.52;68.88;98157.91;8412134;28;20518;-77
2022/10/08 05:13:33;;;;;;;0.00;0.00;;;;;;;15.47;68.63;98155.56;8411955;28;20518;-78
2022/10/08 05:17:36;;;;;;;0.00;0.00;;;;;;;15.42;68.53;98155.00;8412272;28;20241;-78
2022/10/08 05:21:40;;;;;;;0.00;0.00;;;;;;;15.44;68.89;98164.44;8412346;28;20299;-77
2022/10/08 05:25:42;;;;;;;0.00;0.00;;;;;;;15.50;68.81;98168.44;8411839;28;20231;-77
2022/10/08 05:29:45;;;;;;;0.00;0.00;;;;;;;15.44;69.08;98174.03;8411773;28;20270;-77
2022/10/08 05:33:49;;;;;;;0.00;0.00;;;;;;;15.56;68.66;98164.59;8411684;28;20445;-78
2022/10/08 05:37:52;;;;;;;0.00;0.00;;;;;;;15.49;68.65;98166.75;8411548;28;20444;-78
2022/10/08 05:41:55;;;;;;;0.00;0.00;;;;;;;15.57;68.40;98174.97;8411050;28;20227;-78
2022/10/08 05:45:57;;;;;;;0.00;0.00;;;;;;;15.46;69.24;98172.16;8417187;28;20231;-79
2022/10/08 05:50:02;;;;;;;0.00;0.00;;;;;;;15.43;68.94;98175.78;8417110;28;20227;-79
2022/10/08 05:54:04;;;;;;;0.00;0.00;;;;;;;15.57;68.48;98182.78;8416967;28;20238;-78
2022/10/08 05:58:07;;;;;;;0.00;0.00;;;;;;;15.66;68.48;98183.97;8417494;28;20518;-77
2022/10/08 06:02:11;;;;;;;0.00;0.00;;;;;;;15.69;68.15;98190.78;8417553;28;20259;-78
2022/10/08 06:06:15;;;;;;;0.00;0.00;;;;;;;15.68;68.62;98192.56;8417359;28;20230;-78
2022/10/08 06:10:18;;;;;;;0.00;0.00;;;;;;;15.72;68.43;98191.44;8416996;28;20242;-78
2022/10/08 06:14:23;;;;;;;0.00;0.00;;;;;;;15.70;68.08;98188.06;8416803;28;20239;-78
2022/10/08 06:18:27;;;;;;;0.00;0.00;;;;;;;15.77;67.95;98197.25;8416301;28;20301;-79
2022/10/08 06:22:31;;;;;;;0.00;0.00;;;;;;;15.78;67.94;98217.22;8416633;28;20231;-78
2022/10/08 06:26:36;;;;;;;0.00;0.00;;;;;;;15.86;67.73;98215.88;8416478;28;20230;-80
2022/10/08 06:30:39;;;;;;;0.00;0.00;;;;;;;15.86;67.95;98227.19;8416048;28;20249;-77
2022/10/08 06:34:42;;;;;;;0.00;0.00;;;;;;;15.87;67.98;98214.97;8416584;28;20242;-79
2022/10/08 06:38:50;;;;;;;0.00;0.00;;;;;;;15.84;67.90;98216.00;8416570;28;20226;-79
2022/10/08 06:42:53;;;;;;;0.00;0.00;;;;;;;15.68;69.10;98225.66;8416145;28;20227;-79
2022/10/08 06:46:55;;;;;;;0.07;0.07;;;;;;;16.02;67.58;98238.34;8416340;28;20227;-79
2022/10/08 06:50:59;;;;;;;0.00;0.00;;;;;;;16.18;67.29;98233.00;8415836;28;20301;-79
2022/10/08 06:55:04;;;;;;;0.00;0.00;;;;;;;16.42;66.84;98235.00;8415277;28;20540;-82
2022/10/08 06:59:08;;;;;;;0.00;0.00;;;;;;;16.47;66.89;98238.16;8415303;28;20317;-79
2022/10/08 07:03:10;;;;;;;0.00;0.00;;;;;;;16.62;66.68;98244.19;8415394;28;20226;-79
2022/10/08 07:07:13;;;;;;;0.00;0.00;;;;;;;16.82;66.42;98255.97;8414774;28;20268;-79
2022/10/08 07:11:18;;;;;;;0.00;0.00;;;;;;;16.89;65.56;98264.28;8414321;28;20234;-79
2022/10/08 07:15:21;;;;;;;0.00;0.00;;;;;;;16.88;66.27;98244.28;8414672;28;20235;-79
2022/10/08 07:19:24;;;;;;;0.00;0.00;;;;;;;16.97;65.85;98243.69;8414726;28;20231;-79
2022/10/08 07:23:27;;;;;;;0.00;0.00;;;;;;;17.07;65.75;98256.97;8413851;28;20276;-81
2022/10/08 07:27:31;;;;;;;0.00;0.00;;;;;;;16.99;66.10;98266.19;8414404;28;20371;-79
2022/10/08 07:31:35;;;;;;;0.00;0.00;;;;;;;17.01;66.14;98266.06;8414032;28;20250;-79
2022/10/08 07:35:38;;;;;;;0.00;0.00;;;;;;;17.07;66.03;98263.06;8414011;28;20522;-79
2022/10/08 07:39:41;;;;;;;0.00;0.00;;;;;;;17.41;66.06;98260.81;8413752;28;20246;-78
2022/10/08 07:43:50;;;;;;;0.00;0.00;;;;;;;17.57;65.62;98265.81;8413950;28;20239;-79
2022/10/08 07:47:52;;;;;;;0.00;0.00;;;;;;;17.92;65.20;98259.97;8413868;28;20238;-79
2022/10/08 07:51:55;;;;;;;0.00;0.00;;;;;;;17.84;65.25;98267.50;8413693;28;20230;-80
2022/10/08 07:55:58;;;;;;;0.00;0.00;;;;;;;17.78;65.58;98277.47;8413647;28;20231;-80
2022/10/08 08:00:03;;;;;;;0.00;0.00;;;;;;;17.96;65.07;98279.78;8413446;28;20223;-80
2022/10/08 08:04:08;;;;;;;0.00;0.00;;;;;;;18.08;65.32;98281.53;8413737;28;20238;-80
2022/10/08 08:08:11;;;;;;;0.00;0.00;;;;;;;17.84;65.07;98285.81;8412589;28;20430;-79
2022/10/08 08:12:14;;;;;;;0.10;0.10;;;;;;;17.93;65.09;98290.47;8413241;28;20232;-78
2022/10/08 08:16:20;;;;;;;0.00;0.00;;;;;;;17.92;65.23;98294.88;8413483;28;20233;-79
2022/10/08 08:20:22;;;;;;;0.00;0.00;;;;;;;18.01;65.58;98293.41;8413229;28;20290;-77
2022/10/08 08:24:25;;;;;;;0.00;0.00;;;;;;;18.13;65.75;98302.19;8412922;28;20324;-73
2022/10/08 08:28:28;;;;;;;0.00;0.00;;;;;;;18.02;64.59;98297.69;8413158;28;20231;-76
2022/10/08 08:32:32;;;;;;;0.00;0.00;;;;;;;18.39;63.17;98281.16;8413064;28;20292;-78
2022/10/08 08:36:37;;;;;;;0.00;0.00;;;;;;;18.88;61.58;98294.22;8412870;28;20235;-80
2022/10/08 08:40:40;;;;;;;0.00;0.00;;;;;;;19.55;54.74;98300.63;8412951;28;20231;-77
2022/10/08 08:44:44;;;;;;;0.00;0.00;;;;;;;19.67;54.65;98293.63;8413021;28;20241;-77
2022/10/08 08:48:51;;;;;;;0.00;0.00;;;;;;;19.51;52.54;98307.94;8412980;28;20242;-78
2022/10/08 08:52:54;;;;;;;0.00;0.00;;;;;;;20.18;51.69;98310.75;8413011;28;20439;-77
2022/10/08 08:57:11;;;;;;;0.00;0.00;;;;;;;21.20;49.50;98308.75;8412551;28;20513;-77
2022/10/08 09:01:17;;;;;;;0.00;0.00;;;;;;;21.69;48.22;98301.22;8412463;28;20272;-74
2022/10/08 09:05:23;;;;;;;0.00;0.00;;;;;;;22.03;46.82;98299.16;8412366;28;20454;-77
2022/10/08 09:09:30;;;;;;;0.00;0.00;;;;;;;21.69;45.39;98303.84;8411847;28;20241;-77
2022/10/08 09:13:36;;;;;;;0.00;0.00;;;;;;;20.76;46.35;98313.22;8411911;28;20246;-77
2022/10/08 09:17:39;;;;;;;0.00;0.00;;;;;;;21.43;44.72;98320.84;8414850;28;20532;-78
2022/10/08 09:21:43;;;;;;;0.00;0.00;;;;;;;21.34;44.36;98323.41;8418447;28;20246;-77
2022/10/08 09:25:49;;;;;;;0.00;0.00;;;;;;;21.78;43.21;98332.03;8418078;28;20295;-77
2022/10/08 09:29:52;;;;;;;0.00;0.00;;;;;;;22.31;43.48;98320.53;8418060;28;20262;-77
2022/10/08 09:34:01;;;;;;;0.00;0.00;;;;;;;21.40;45.18;98338.69;8418562;28;20257;-77
2022/10/08 09:38:05;;;;;;;0.00;0.00;;;;;;;20.51;44.99;98333.56;8418547;28;20230;-78
2022/10/08 09:42:16;;;;;;;0.00;0.00;;;;;;;20.73;45.74;98332.72;8418418;28;20238;-77
2022/10/08 09:46:28;;;;;;;0.00;0.00;;;;;;;20.23;46.81;98340.16;8418445;28;20230;-77
2022/10/08 09:50:31;;;;;;;0.00;0.00;;;;;;;20.57;43.59;98342.78;8417586;28;20336;-76
2022/10/08 09:54:37;;;;;;;0.00;0.00;;;;;;;20.60;44.63;98340.78;8418084;28;20231;-77
2022/10/08 09:58:49;;;;;;;0.00;0.00;;;;;;;21.24;43.02;98349.66;8417831;28;20231;-78
2022/10/08 10:02:53;;;;;;;0.00;0.00;;;;;;;20.89;42.11;98345.50;8417934;28;20230;-77
2022/10/08 10:06:56;;;;;;;0.00;0.00;;;;;;;20.58;42.84;98340.03;8417692;28;20415;-70
2022/10/08 10:11:00;;;;;;;0.00;0.00;;;;;;;21.18;41.99;98356.28;8417482;28;20505;-76
2022/10/08 10:15:04;;;;;;;0.00;0.00;;;;;;;22.24;39.70;98347.41;8417480;28;20530;-76
2022/10/08 10:19:12;;;;;;;0.00;0.00;;;;;;;21.99;41.54;98351.31;8417500;28;20231;-78
2022/10/08 10:23:18;;;;;;;0.00;0.00;;;;;;;21.41;41.89;98359.66;8417478;28;20233;-77
2022/10/08 10:27:29;;;;;;;0.00;0.00;;;;;;;20.98;40.81;98347.38;8416945;28;20280;-77
2022/10/08 10:31:35;;;;;;;0.00;0.00;;;;;;;20.45;40.71;98353.31;8415736;28;20241;-76
2022/10/08 10:35:44;;;;;;;0.00;0.00;;;;;;;21.51;39.38;98351.84;8417060;28;20268;-76
2022/10/08 10:39:51;;;;;;;0.00;0.00;;;;;;;22.01;38.84;98365.22;8416539;28;20234;-78
2022/10/08 10:43:59;;;;;;;0.00;0.00;;;;;;;22.04;37.15;98359.66;8416877;28;20485;-78
2022/10/08 10:48:02;;;;;;;0.00;0.00;;;;;;;21.80;37.02;98361.75;8416395;28;20230;-78
2022/10/08 10:52:20;;;;;;;0.00;0.00;;;;;;;22.33;36.67;98359.03;8416241;28;20239;-78
2022/10/08 10:56:26;;;;;;;0.00;0.00;;;;;;;22.21;35.96;98358.22;8416186;28;20447;-76
2022/10/08 11:00:33;;;;;;;0.00;0.00;;;;;;;22.23;36.95;98360.72;8415306;28;20468;-78
2022/10/08 11:04:45;;;;;;;0.00;0.00;;;;;;;22.69;35.86;98356.75;8415781;28;20230;-78
2022/10/08 11:08:53;;;;;;;0.00;0.00;;;;;;;22.82;34.91;98359.97;8415638;28;20235;-77
2022/10/08 11:12:59;;;;;;;0.00;0.00;;;;;;;22.90;33.80;98355.81;8415519;28;20285;-77
2022/10/08 11:17:08;;;;;;;0.00;0.00;;;;;;;23.00;34.21;98359.31;8415323;28;20226;-77
2022/10/08 11:21:23;;;;;;;0.00;0.00;;;;;;;22.35;34.81;98362.34;8415007;28;20233;-78
2022/10/08 11:25:29;;;;;;;0.00;0.00;;;;;;;22.61;35.25;98364.50;8414752;28;20412;-75
2022/10/08 11:29:38;;;;;;;0.00;0.00;;;;;;;22.20;36.31;98361.84;8414762;28;20246;-77
2022/10/08 11:33:43;;;;;;;0.00;0.00;;;;;;;21.84;36.37;98368.44;8414650;28;20227;-77
2022/10/08 11:37:49;;;;;;;0.00;0.00;;;;;;;21.46;37.17;98368.03;8414988;28;20239;-78
2022/10/08 11:41:56;;;;;;;0.00;0.00;;;;;;;21.27;38.29;98376.59;8414707;28;20234;-76
2022/10/08 11:46:21;;;;;;;0.00;0.00;;;;;;;21.16;37.28;98378.44;8414429;28;20234;-77
2022/10/08 11:50:29;;;;;;;0.00;0.00;;;;;;;21.67;37.02;98375.97;8411231;28;20250;-78
2022/10/08 11:54:33;;;;;;;0.00;0.00;;;;;;;21.36;37.77;98368.88;8414069;28;20231;-77
2022/10/08 11:58:36;;;;;;;0.00;0.00;;;;;;;21.77;38.04;98373.38;8414192;28;20253;-78
2022/10/08 12:02:41;;;;;;;0.00;0.00;;;;;;;21.73;36.33;98368.50;8414099;28;20242;-75
2022/10/08 12:06:47;;;;;;;0.00;0.00;;;;;;;22.17;36.28;98363.91;8413925;28;20553;-77
2022/10/08 12:10:49;;;;;;;0.00;0.00;;;;;;;21.62;37.33;98364.97;8413839;28;20244;-78
2022/10/08 12:14:53;;;;;;;0.00;0.00;;;;;;;20.99;37.89;98366.63;8413633;28;20440;-78
2022/10/08 12:18:57;;;;;;;0.00;0.00;;;;;;;21.63;37.04;98364.00;8414027;28;20435;-77
2022/10/08 12:23:04;;;;;;;0.00;0.00;;;;;;;21.96;36.63;98364.75;8413558;28;20230;-77
2022/10/08 12:27:40;;;;;;;0.00;0.00;;;;;;;22.29;36.05;98354.94;8413652;28;20584;-77
2022/10/08 12:31:44;;;;;;;0.00;0.00;;;;;;;21.97;35.53;98357.69;8413296;28;20511;-77
2022/10/08 12:35:57;;;;;;;0.00;0.00;;;;;;;21.98;35.82;98364.63;8413688;28;20295;-77
2022/10/08 12:40:03;;;;;;;0.00;0.00;;;;;;;22.06;36.83;98359.53;8413512;28;20230;-76
2022/10/08 12:44:11;;;;;;;0.00;0.00;;;;;;;22.54;36.08;98351.03;8413530;28;20231;-77
2022/10/08 12:48:17;;;;;;;0.00;0.00;;;;;;;22.78;36.81;98355.09;8413536;28;20226;-81
2022/10/08 12:52:21;;;;;;;0.00;0.00;;;;;;;22.52;41.97;98354.75;8415812;28;20248;-75
2022/10/08 12:56:27;;;;;;;0.00;0.00;;;;;;;22.62;40.22;98353.00;8420026;28;20234;-73
2022/10/08 13:00:33;;;;;;;0.00;0.00;;;;;;;22.67;39.29;98352.59;8419728;28;20230;-75
2022/10/08 13:04:37;;;;;;;0.00;0.00;;;;;;;22.72;37.14;98353.84;8419883;28;20239;-75
2022/10/08 13:08:41;;;;;;;0.00;0.00;;;;;;;23.08;37.03;98358.66;8419422;28;20269;-75
2022/10/08 13:12:58;;;;;;;0.00;0.00;;;;;;;22.40;37.67;98362.78;8419519;28;20242;-74
2022/10/08 13:17:02;;;;;;;0.00;0.00;;;;;;;21.76;39.18;98358.56;8419383;28;20452;-75
2022/10/08 13:21:06;;;;;;;0.00;0.00;;;;;;;21.42;38.84;98360.50;8419346;28;20253;-75
2022/10/08 13:25:31;;;;;;;0.00;0.00;;;;;;;21.04;40.51;98373.19;8419172;28;20227;-75
2022/10/08 13:29:36;;;;;;;0.00;0.00;;;;;;;20.84;40.68;98371.34;8418443;28;20291;-76
2022/10/08 13:33:42;;;;;;;0.00;0.00;;;;;;;20.70;41.26;98377.72;8418672;28;20238;-76
2022/10/08 13:37:51;;;;;;;0.00;0.00;;;;;;;20.43;42.03;98381.53;8418798;28;20239;-77
2022/10/08 13:41:56;;;;;;;0.00;0.00;;;;;;;20.32;42.32;98378.91;8418894;28;20223;-77
2022/10/08 13:46:04;;;;;;;0.00;0.00;;;;;;;20.20;42.19;98380.69;8418414;28;20230;-76
2022/10/08 13:50:07;;;;;;;0.00;0.00;;;;;;;20.20;41.35;98377.19;8418475;28;20538;-76
2022/10/08 13:54:11;;;;;;;0.00;0.00;;;;;;;20.04;41.90;98390.69;8418341;28;20231;-77
2022/10/08 13:58:16;;;;;;;0.00;0.00;;;;;;;19.95;41.49;98383.50;8418200;28;20230;-78
2022/10/08 14:02:21;;;;;;;0.00;0.00;;;;;;;20.15;42.44;98385.47;8417752;28;20525;-77
2022/10/08 14:06:24;;;;;;;0.00;0.00;;;;;;;20.61;40.73;98378.44;8416843;28;20244;-78
2022/10/08 14:10:27;;;;;;;0.00;0.00;;;;;;;20.58;40.95;98373.38;8417111;28;20460;-78
2022/10/08 14:14:30;;;;;;;0.00;0.00;;;;;;;20.86;39.60;98374.69;8417616;28;20246;-77
2022/10/08 14:18:34;;;;;;;0.00;0.00;;;;;;;21.40;39.04;98375.56;8417368;28;20248;-76
2022/10/08 14:22:38;;;;;;;0.00;0.00;;;;;;;21.67;39.24;98370.69;8417197;28;20246;-77
2022/10/08 14:26:41;;;;;;;0.00;0.00;;;;;;;21.91;38.32;98377.50;8417275;28;20237;-77
2022/10/08 14:30:44;;;;;;;0.00;0.00;;;;;;;21.85;37.73;98373.56;8417158;28;20234;-77
2022/10/08 14:34:48;;;;;;;0.00;0.00;;;;;;;21.83;37.28;98366.75;8416784;28;20234;-76
2022/10/08 14:38:51;;;;;;;0.00;0.00;;;;;;;21.55;38.25;98370.88;8416982;28;20438;-75
2022/10/08 14:42:53;;;;;;;0.00;0.00;;;;;;;20.73;39.80;98368.72;8416629;28;20237;-75
2022/10/08 14:46:56;;;;;;;0.00;0.00;;;;;;;20.35;40.46;98370.75;8416471;28;20222;-76
2022/10/08 14:51:01;;;;;;;0.00;0.00;;;;;;;20.35;41.15;98365.50;8416347;28;20276;-76
2022/10/08 14:55:04;;;;;;;0.00;0.00;;;;;;;19.95;41.84;98378.25;8416564;28;20230;-75
2022/10/08 14:59:08;;;;;;;0.00;0.00;;;;;;;19.77;42.29;98377.88;8416117;28;20234;-77
2022/10/08 15:03:10;;;;;;;0.00;0.00;;;;;;;20.08;42.45;98386.88;8416296;28;20533;-77
2022/10/08 15:07:14;;;;;;;0.00;0.00;;;;;;;20.37;42.67;98382.00;8416298;28;20230;-77
2022/10/08 15:11:17;;;;;;;0.00;0.00;;;;;;;20.23;42.90;98385.69;8416369;28;20227;-77
2022/10/08 15:15:20;;;;;;;0.00;0.00;;;;;;;20.39;42.42;98388.00;8416714;28;20227;-76
2022/10/08 15:19:22;;;;;;;0.00;0.00;;;;;;;19.71;44.45;98390.47;8418309;28;20234;-80
2022/10/08 15:23:27;;;;;;;0.00;0.00;;;;;;;19.69;45.29;98402.06;8421214;28;20344;-71
2022/10/08 15:27:30;;;;;;;0.00;0.00;;;;;;;19.26;45.98;98400.81;8415198;28;20251;-80
2022/10/08 15:31:32;;;;;;;0.00;0.00;;;;;;;19.20;46.14;98403.06;8414798;28;20237;-76
2022/10/08 15:35:35;;;;;;;0.00;0.00;;;;;;;18.98;46.55;98401.13;8414527;28;20239;-76
2022/10/08 15:39:39;;;;;;;0.00;0.00;;;;;;;18.59;47.14;98403.84;8414776;28;20520;-77
2022/10/08 15:43:42;;;;;;;0.00;0.00;;;;;;;18.61;48.03;98416.84;8414456;28;20242;-76
2022/10/08 15:47:45;;;;;;;0.00;0.00;;;;;;;18.70;47.55;98424.91;8414548;28;20278;-76
2022/10/08 15:51:47;;;;;;;0.00;0.00;;;;;;;18.41;48.12;98418.22;8414293;28;20458;-76
2022/10/08 15:55:55;;;;;;;0.00;0.00;;;;;;;18.50;48.14;98426.28;8414526;28;20233;-77
2022/10/08 15:59:58;;;;;;;0.00;0.00;;;;;;;18.30;47.93;98438.16;8414447;28;20533;-75
2022/10/08 16:04:01;;;;;;;0.00;0.00;;;;;;;18.35;48.43;98443.09;8414133;28;20238;-75
2022/10/08 16:08:07;;;;;;;0.00;0.00;;;;;;;18.20;49.81;98447.63;8414208;28;20292;-75
2022/10/08 16:12:11;;;;;;;0.00;0.00;;;;;;;18.28;49.29;98462.81;8413957;28;20243;-76
2022/10/08 16:16:16;;;;;;;0.00;0.00;;;;;;;18.22;49.67;98464.06;8414099;28;20223;-77
2022/10/08 16:20:19;;;;;;;0.00;0.00;;;;;;;18.19;50.28;98468.69;8414010;28;20227;-76
2022/10/08 16:24:22;;;;;;;0.00;0.00;;;;;;;18.14;50.16;98469.84;8414034;28;20426;-76
2022/10/08 16:28:26;;;;;;;0.00;0.00;;;;;;;18.13;49.91;98483.88;8413362;28;20242;-76
2022/10/08 16:32:29;;;;;;;0.00;0.00;;;;;;;17.94;50.52;98488.66;8413114;28;20261;-76
2022/10/08 16:36:33;;;;;;;0.00;0.00;;;;;;;17.93;50.37;98484.34;8413636;28;20579;-77
2022/10/08 16:40:36;;;;;;;0.00;0.00;;;;;;;17.88;50.87;98492.53;8413481;28;20238;-76
2022/10/08 16:44:40;;;;;;;0.00;0.00;;;;;;;17.79;50.98;98504.41;8413109;28;20260;-76
2022/10/08 16:48:43;;;;;;;0.00;0.00;;;;;;;17.72;51.09;98512.75;8413551;28;20256;-77
2022/10/08 16:52:46;;;;;;;0.00;0.00;;;;;;;17.70;51.11;98510.25;8413496;28;20235;-77
2022/10/08 16:56:49;;;;;;;0.00;0.00;;;;;;;17.58;51.73;98518.91;8413672;28;20231;-77
2022/10/08 17:00:56;;;;;;;0.00;0.00;;;;;;;17.58;51.39;98524.13;8413522;28;20530;-76
2022/10/08 17:04:59;;;;;;;0.00;0.00;;;;;;;17.50;51.59;98526.41;8412596;28;20258;-76
2022/10/08 17:09:02;;;;;;;0.00;0.00;;;;;;;17.33;52.11;98540.56;8413553;28;20409;-76
2022/10/08 17:13:05;;;;;;;0.00;0.00;;;;;;;17.29;52.25;98546.94;8413434;28;20540;-75
2022/10/08 17:17:09;;;;;;;0.00;0.00;;;;;;;17.14;53.12;98546.13;8412491;28;20226;-75
2022/10/08 17:21:13;;;;;;;0.00;0.00;;;;;;;17.07;53.31;98550.03;8413053;28;20282;-75
2022/10/08 17:25:16;;;;;;;0.00;0.00;;;;;;;17.06;53.75;98564.91;8412541;28;20262;-75
2022/10/08 17:29:19;;;;;;;0.00;0.00;;;;;;;17.00;54.08;98554.78;8412796;28;20222;-73
2022/10/08 17:33:23;;;;;;;0.00;0.00;;;;;;;16.96;53.42;98561.16;8412797;28;20230;-75
2022/10/08 17:37:25;;;;;;;0.00;0.00;;;;;;;16.87;53.69;98567.81;8412646;28;20250;-74
2022/10/08 17:41:30;;;;;;;0.00;0.00;;;;;;;16.88;53.92;98576.47;8418679;28;20234;-75
2022/10/08 17:45:32;;;;;;;0.00;0.00;;;;;;;16.74;54.33;98591.19;8418473;28;20304;-77
2022/10/08 17:49:37;;;;;;;0.00;0.00;;;;;;;16.65;54.86;98596.13;8418349;28;20246;-75
2022/10/08 17:53:40;;;;;;;0.00;0.00;;;;;;;16.66;54.63;98603.03;8418206;28;20235;-76
2022/10/08 17:57:42;;;;;;;0.00;0.00;;;;;;;16.64;54.51;98604.91;8418363;28;20231;-80
2022/10/08 18:01:45;;;;;;;0.00;0.00;;;;;;;16.51;54.53;98610.03;8418075;28;20246;-76
2022/10/08 18:05:57;;;;;;;0.00;0.00;;;;;;;16.49;54.34;98604.88;8417997;28;20229;-79
2022/10/08 18:09:59;;;;;;;0.00;0.00;;;;;;;16.30;54.93;98615.56;8418019;28;20234;-78
2022/10/08 18:14:03;;;;;;;0.00;0.00;;;;;;;16.21;55.00;98626.53;8417971;28;20242;-81
2022/10/08 18:18:06;;;;;;;0.00;0.00;;;;;;;16.09;55.02;98635.91;8417786;28;20230;-77
2022/10/08 18:22:10;;;;;;;0.00;0.00;;;;;;;16.05;55.24;98641.38;8417474;28;20276;-78
2022/10/08 18:26:16;;;;;;;0.00;0.00;;;;;;;15.97;55.09;98645.28;8417488;28;20276;-73
2022/10/08 18:30:19;;;;;;;0.00;0.00;;;;;;;15.96;55.26;98653.19;8417394;28;20225;-75
2022/10/08 18:34:22;;;;;;;0.00;0.00;;;;;;;15.88;55.47;98653.63;8417218;28;20239;-74
2022/10/08 18:38:26;;;;;;;0.00;0.00;;;;;;;15.74;55.44;98662.19;8417010;28;20230;-74
2022/10/08 18:42:29;;;;;;;0.00;0.00;;;;;;;15.70;55.53;98655.44;8416316;28;20268;-75
2022/10/08 18:46:33;;;;;;;0.00;0.00;;;;;;;15.71;55.31;98670.19;8416787;28;20230;-74
2022/10/08 18:50:36;;;;;;;0.00;0.00;;;;;;;15.60;55.46;98675.13;8415899;28;20238;-73
2022/10/08 18:54:40;;;;;;;0.00;0.00;;;;;;;15.52;55.71;98683.38;8415901;28;20301;-73
2022/10/08 18:58:43;;;;;;;0.00;0.00;;;;;;;15.54;55.59;98681.53;8416400;28;20231;-74
2022/10/08 19:02:47;;;;;;;0.00;0.00;;;;;;;15.55;55.52;98687.59;8415991;28;20237;-74
2022/10/08 19:06:52;;;;;;;0.00;0.00;;;;;;;15.43;55.77;98692.53;8416072;28;20411;-76
2022/10/08 19:10:56;;;;;;;0.00;0.00;;;;;;;15.39;55.42;98693.63;8416065;28;20242;-74
2022/10/08 19:14:58;;;;;;;0.00;0.00;;;;;;;15.30;55.72;98698.47;8415811;28;20238;-74